This is the latest recevied weather packets stored in our database for station/object GBTWP-2. If no packets are shown the sender has not sent any weather packets the latest 10 day(s).
| Time | Temp. | Humidity | Pressure | Rain* | Wind** | Luminosity | Snow |
|---|---|---|---|---|---|---|---|
| 1777803601 | 3.89° C | 60% | 1015.3 hPa | 0 mm | - | 1 W/m² | - |
| 1777803302 | 3.89° C | 60% | 1015.3 hPa | 0 mm | - | 0 W/m² | - |
| 1777803002 | 3.33° C | 60% | 1015.3 hPa | 0 mm | - | 0 W/m² | - |
| 1777802102 | 2.78° C | 61% | 1015.7 hPa | 0 mm | - | 0 W/m² | - |
| 1777801802 | 2.78° C | 62% | 1015.5 hPa | 0 mm | - | 0 W/m² | - |
| 1777800602 | 2.78° C | 63% | 1016 hPa | 0 mm | - | 0 W/m² | - |
| 1777800002 | 2.22° C | 68% | 1015.9 hPa | 0 mm | - | 0 W/m² | - |
| 1777798201 | 1.67° C | 69% | 1016.3 hPa | 0 mm | - | 0 W/m² | - |
| 1777797902 | 1.67° C | 70% | 1016.2 hPa | 0 mm | - | 0 W/m² | - |
| 1777797601 | 1.67° C | 69% | 1016.3 hPa | 0 mm | - | 0 W/m² | - |
| 1777796402 | 2.78° C | 65% | 1016.4 hPa | 0 mm | - | 0 W/m² | - |
| 1777795801 | 3.33° C | 61% | 1016.5 hPa | 0 mm | - | 0 W/m² | - |
| 1777795502 | 3.33° C | 60% | 1016.5 hPa | 0 mm | - | 0 W/m² | - |
| 1777794902 | 3.33° C | 62% | 1016.5 hPa | 0 mm | - | 0 W/m² | - |
| 1777794602 | 2.78° C | 62% | 1016.6 hPa | 0 mm | - | 0 W/m² | - |
| 1777794301 | 2.78° C | 64% | 1016.5 hPa | 0 mm | - | 0 W/m² | - |
| 1777794002 | 2.78° C | 66% | 1016.6 hPa | 0 mm | - | 0 W/m² | - |
| 1777793702 | 2.78° C | 64% | 1016.6 hPa | 0 mm | - | 0 W/m² | - |
| 1777793401 | 2.78° C | 65% | 1016.7 hPa | 0 mm | - | 0 W/m² | - |
| 1777793102 | 2.78° C | 64% | 1016.7 hPa | 0 mm | - | 0 W/m² | - |
| 1777792801 | 2.78° C | 65% | 1016.4 hPa | 0 mm | - | 0 W/m² | - |
| 1777792502 | 3.33° C | 64% | 1016.7 hPa | 0 mm | - | 0 W/m² | - |
| 1777791602 | 3.33° C | 62% | 1016.6 hPa | 0 mm | - | 0 W/m² | - |
| 1777791302 | 3.33° C | 64% | 1016.8 hPa | 0 mm | - | 0 W/m² | - |
| 1777791001 | 2.78° C | 64% | 1017 hPa | 0 mm | - | 0 W/m² | - |
* Rain latest hour (hover to see other rain measurements)
** Current wind speed in m/s (hover to see current wind gust speed)